Seoul E Air Base, South Korea

6:44 AM KST on September 01, 2016 (GMT +0900)
Kimpo International | | Change Station

Elev 59 ft 37.56 °N, 126.79 °E | Updated 44 minutes ago

Patches of Fog
Patches Fog
57 °F
Feels Like 57 °F
N
1
Wind Variable Wind from SW

Today
High -- | Low -- °F
--% Chance of Precip.
Yesterday
High -- | Low -- °F
Precip. -- in
Pressure 29.47 in
Visibility 3.7 miles
Clouds Few 800 ft
Dew Point 55 °F
Humidity 94%
Rainfall 0.00 in
Snow Depth Not available.
6:01 AM 7:00 PM
Waning Crescent, 0% visible
METAR RKSS 312100Z 23001KT 6000 0800NW BCFG FEW008 14/13 Q0998 NOSIG
Pressure 29.47 in
Visibility 3.7 miles
Clouds Few 800 ft
Dew Point 55 °F
Humidity 94%
Rainfall 0.00 in
Snow Depth Not available.
6:01 AM 7:00 PM
Waning Crescent, 0% visible
METAR RKSS 312100Z 23001KT 6000 0800NW BCFG FEW008 14/13 Q0998 NOSIG

10-Day Weather Forecast

No radar image for this location.
×

Almanac

Astronomy

Sep. 01, 2016 Rise Set
Actual Time
Civil Twilight
Nautical Twilight
Astronomical Twilight
Moon
Length of Visible Light
Length of Day
Tomorrow will be .
, % of the Moon is Illuminated

Today's Extremes

Country Highs Country Lows

Community

WunderPhotos

Upload Photos

1,936,189 photos uploaded!

WunderBlog® & News

Nearby

Air Quality

  Air Quality AQ Index Pollutant
Not available.

Snow Depth

Station Depth Elevation

Earthquake Activity

City Distance Mag. Time & Date
Minimum magnitude displayed is 2.5.

Coastal Water Temperatures

Place Temperature

Stations

Nearby Weather Stations

Station Location Temp. Windchill Dew Point Humidity Wind Precip. Elev Updated Type